sensor_id;sensor_type;location;lat;lon;timestamp;pressure;altitude;pressure_sealevel;temperature;humidity
20156;BME280;10238;49.556;10.956;2023-04-08T00:00:17;98456.25;;;5.95;100.00
20156;BME280;10238;49.556;10.956;2023-04-08T00:03:04;98458.31;;;5.92;100.00
20156;BME280;10238;49.556;10.956;2023-04-08T00:05:52;98458.56;;;5.89;100.00
20156;BME280;10238;49.556;10.956;2023-04-08T00:08:40;98457.09;;;5.85;100.00
20156;BME280;10238;49.556;10.956;2023-04-08T00:11:29;98444.28;;;5.80;100.00
20156;BME280;10238;49.556;10.956;2023-04-08T00:14:17;98452.31;;;5.79;100.00
20156;BME280;10238;49.556;10.956;2023-04-08T00:17:04;98454.81;;;5.80;100.00
20156;BME280;10238;49.556;10.956;2023-04-08T00:19:53;98457.09;;;5.74;100.00
20156;BME280;10238;49.556;10.956;2023-04-08T00:22:40;98455.56;;;5.71;100.00
20156;BME280;10238;49.556;10.956;2023-04-08T00:25:28;98457.72;;;5.66;100.00
20156;BME280;10238;49.556;10.956;2023-04-08T00:28:17;98459.66;;;5.64;100.00
20156;BME280;10238;49.556;10.956;2023-04-08T00:31:05;98463.34;;;5.62;100.00
20156;BME280;10238;49.556;10.956;2023-04-08T00:33:52;98460.00;;;5.60;100.00
20156;BME280;10238;49.556;10.956;2023-04-08T00:36:39;98463.00;;;5.55;100.00
20156;BME280;10238;49.556;10.956;2023-04-08T00:39:27;98468.41;;;5.54;100.00
20156;BME280;10238;49.556;10.956;2023-04-08T00:42:15;98468.03;;;5.47;100.00
20156;BME280;10238;49.556;10.956;2023-04-08T00:45:06;98463.97;;;5.43;100.00
20156;BME280;10238;49.556;10.956;2023-04-08T00:47:55;98464.19;;;5.40;100.00
20156;BME280;10238;49.556;10.956;2023-04-08T00:50:43;98462.88;;;5.35;100.00
20156;BME280;10238;49.556;10.956;2023-04-08T00:53:32;98473.91;;;5.29;100.00
20156;BME280;10238;49.556;10.956;2023-04-08T00:56:20;98475.00;;;5.26;100.00
20156;BME280;10238;49.556;10.956;2023-04-08T00:59:08;98476.16;;;5.22;100.00
20156;BME280;10238;49.556;10.956;2023-04-08T01:02:17;98472.09;;;5.18;100.00
20156;BME280;10238;49.556;10.956;2023-04-08T01:05:12;98465.63;;;5.11;100.00
20156;BME280;10238;49.556;10.956;2023-04-08T01:08:05;98476.63;;;5.05;100.00
20156;BME280;10238;49.556;10.956;2023-04-08T01:10:57;98480.47;;;5.01;100.00
20156;BME280;10238;49.556;10.956;2023-04-08T01:13:52;98479.25;;;4.94;100.00
20156;BME280;10238;49.556;10.956;2023-04-08T01:16:42;98482.94;;;4.92;100.00
20156;BME280;10238;49.556;10.956;2023-04-08T01:19:38;98485.81;;;4.89;100.00
20156;BME280;10238;49.556;10.956;2023-04-08T01:22:36;98481.63;;;4.86;100.00
20156;BME280;10238;49.556;10.956;2023-04-08T01:25:31;98489.63;;;4.85;100.00
20156;BME280;10238;49.556;10.956;2023-04-08T01:28:25;98486.38;;;4.81;100.00
20156;BME280;10238;49.556;10.956;2023-04-08T01:31:14;98486.75;;;4.77;100.00
20156;BME280;10238;49.556;10.956;2023-04-08T01:34:04;98485.28;;;4.73;100.00
20156;BME280;10238;49.556;10.956;2023-04-08T01:36:55;98482.78;;;4.71;100.00
20156;BME280;10238;49.556;10.956;2023-04-08T01:39:46;98478.13;;;4.75;100.00
20156;BME280;10238;49.556;10.956;2023-04-08T01:42:36;98481.22;;;4.69;100.00
20156;BME280;10238;49.556;10.956;2023-04-08T01:45:27;98481.09;;;4.70;100.00
20156;BME280;10238;49.556;10.956;2023-04-08T01:48:17;98477.75;;;4.68;100.00
20156;BME280;10238;49.556;10.956;2023-04-08T01:51:06;98480.25;;;4.70;100.00
20156;BME280;10238;49.556;10.956;2023-04-08T01:53:54;98470.56;;;4.70;100.00
20156;BME280;10238;49.556;10.956;2023-04-08T01:56:44;98475.84;;;4.70;100.00
20156;BME280;10238;49.556;10.956;2023-04-08T01:59:35;98476.91;;;4.68;100.00
20156;BME280;10238;49.556;10.956;2023-04-08T02:02:27;98480.25;;;4.70;100.00
20156;BME280;10238;49.556;10.956;2023-04-08T02:05:15;98477.50;;;4.71;100.00
20156;BME280;10238;49.556;10.956;2023-04-08T02:08:03;98479.22;;;4.72;100.00
20156;BME280;10238;49.556;10.956;2023-04-08T02:10:51;98485.53;;;4.70;100.00
20156;BME280;10238;49.556;10.956;2023-04-08T02:13:38;98488.78;;;4.73;100.00
20156;BME280;10238;49.556;10.956;2023-04-08T02:16:35;98480.66;;;4.76;100.00
20156;BME280;10238;49.556;10.956;2023-04-08T02:19:35;98481.63;;;4.75;100.00
20156;BME280;10238;49.556;10.956;2023-04-08T02:22:37;98488.78;;;4.73;100.00
20156;BME280;10238;49.556;10.956;2023-04-08T02:25:26;98486.16;;;4.73;100.00
20156;BME280;10238;49.556;10.956;2023-04-08T02:28:18;98490.09;;;4.79;100.00
20156;BME280;10238;49.556;10.956;2023-04-08T02:31:10;98496.00;;;4.82;100.00
20156;BME280;10238;49.556;10.956;2023-04-08T02:33:59;98491.44;;;4.84;100.00
20156;BME280;10238;49.556;10.956;2023-04-08T02:36:50;98498.38;;;4.85;100.00
20156;BME280;10238;49.556;10.956;2023-04-08T02:39:39;98490.50;;;4.85;100.00
20156;BME280;10238;49.556;10.956;2023-04-08T02:42:26;98492.38;;;4.83;100.00
20156;BME280;10238;49.556;10.956;2023-04-08T02:45:14;98498.50;;;4.84;100.00
20156;BME280;10238;49.556;10.956;2023-04-08T02:48:03;98499.56;;;4.81;100.00
20156;BME280;10238;49.556;10.956;2023-04-08T02:50:51;98498.72;;;4.81;100.00
20156;BME280;10238;49.556;10.956;2023-04-08T02:53:40;98499.56;;;4.81;100.00
20156;BME280;10238;49.556;10.956;2023-04-08T02:56:27;98502.31;;;4.80;100.00
20156;BME280;10238;49.556;10.956;2023-04-08T02:59:15;98503.16;;;4.80;100.00
20156;BME280;10238;49.556;10.956;2023-04-08T03:02:04;98498.97;;;4.78;100.00
20156;BME280;10238;49.556;10.956;2023-04-08T03:04:52;98504.22;;;4.78;100.00
20156;BME280;10238;49.556;10.956;2023-04-08T03:07:39;98502.56;;;4.77;100.00
20156;BME280;10238;49.556;10.956;2023-04-08T03:10:28;98504.34;;;4.76;100.00
20156;BME280;10238;49.556;10.956;2023-04-08T03:13:16;98510.56;;;4.75;100.00
20156;BME280;10238;49.556;10.956;2023-04-08T03:16:05;98505.91;;;4.79;100.00
20156;BME280;10238;49.556;10.956;2023-04-08T03:18:52;98512.59;;;4.83;100.00
20156;BME280;10238;49.556;10.956;2023-04-08T03:21:41;98512.72;;;4.81;100.00
20156;BME280;10238;49.556;10.956;2023-04-08T03:24:29;98512.50;;;4.84;100.00
20156;BME280;10238;49.556;10.956;2023-04-08T03:27:18;98514.06;;;4.87;100.00
20156;BME280;10238;49.556;10.956;2023-04-08T03:30:07;98513.22;;;4.86;100.00
20156;BME280;10238;49.556;10.956;2023-04-08T03:32:55;98516.81;;;4.85;100.00
20156;BME280;10238;49.556;10.956;2023-04-08T03:35:43;98514.91;;;4.87;100.00
20156;BME280;10238;49.556;10.956;2023-04-08T03:38:31;98515.13;;;4.84;100.00
20156;BME280;10238;49.556;10.956;2023-04-08T03:41:18;98519.91;;;4.79;100.00
20156;BME280;10238;49.556;10.956;2023-04-08T03:44:07;98514.88;;;4.76;100.00
20156;BME280;10238;49.556;10.956;2023-04-08T03:46:55;98522.03;;;4.74;100.00
20156;BME280;10238;49.556;10.956;2023-04-08T03:49:42;98517.84;;;4.72;100.00
20156;BME280;10238;49.556;10.956;2023-04-08T03:52:29;98517.00;;;4.71;100.00
20156;BME280;10238;49.556;10.956;2023-04-08T03:55:17;98519.63;;;4.71;100.00
20156;BME280;10238;49.556;10.956;2023-04-08T03:58:05;98513.31;;;4.74;100.00
20156;BME280;10238;49.556;10.956;2023-04-08T04:00:55;98525.53;;;4.75;100.00
20156;BME280;10238;49.556;10.956;2023-04-08T04:03:42;98524.66;;;4.74;100.00
20156;BME280;10238;49.556;10.956;2023-04-08T04:06:30;98523.00;;;4.73;100.00
20156;BME280;10238;49.556;10.956;2023-04-08T04:09:18;98525.75;;;4.72;100.00
20156;BME280;10238;49.556;10.956;2023-04-08T04:12:05;98525.00;;;4.70;100.00
20156;BME280;10238;49.556;10.956;2023-04-08T04:14:53;98528.72;;;4.67;100.00
20156;BME280;10238;49.556;10.956;2023-04-08T04:17:42;98527.06;;;4.66;100.00
20156;BME280;10238;49.556;10.956;2023-04-08T04:20:29;98528.94;;;4.64;100.00
20156;BME280;10238;49.556;10.956;2023-04-08T04:23:17;98531.81;;;4.61;100.00
20156;BME280;10238;49.556;10.956;2023-04-08T04:26:08;98537.06;;;4.61;100.00
20156;BME280;10238;49.556;10.956;2023-04-08T04:28:56;98543.31;;;4.60;100.00
20156;BME280;10238;49.556;10.956;2023-04-08T04:31:43;98542.34;;;4.61;100.00
20156;BME280;10238;49.556;10.956;2023-04-08T04:34:33;98551.19;;;4.60;100.00
20156;BME280;10238;49.556;10.956;2023-04-08T04:37:21;98543.31;;;4.60;100.00
20156;BME280;10238;49.556;10.956;2023-04-08T04:40:08;98541.47;;;4.61;100.00
20156;BME280;10238;49.556;10.956;2023-04-08T04:42:56;98544.97;;;4.61;100.00
20156;BME280;10238;49.556;10.956;2023-04-08T04:45:44;98549.28;;;4.62;100.00
20156;BME280;10238;49.556;10.956;2023-04-08T04:48:31;98549.03;;;4.65;100.00
20156;BME280;10238;49.556;10.956;2023-04-08T04:51:20;98549.78;;;4.67;100.00
20156;BME280;10238;49.556;10.956;2023-04-08T04:54:08;98551.56;;;4.67;100.00
20156;BME280;10238;49.556;10.956;2023-04-08T04:56:55;98549.78;;;4.67;100.00
20156;BME280;10238;49.556;10.956;2023-04-08T04:59:43;98555.91;;;4.68;100.00
20156;BME280;10238;49.556;10.956;2023-04-08T05:02:30;98562.22;;;4.65;100.00
20156;BME280;10238;49.556;10.956;2023-04-08T05:05:18;98564.72;;;4.67;100.00
20156;BME280;10238;49.556;10.956;2023-04-08T05:08:08;98565.59;;;4.67;100.00
20156;BME280;10238;49.556;10.956;2023-04-08T05:10:55;98576.13;;;4.67;100.00
20156;BME280;10238;49.556;10.956;2023-04-08T05:13:45;98573.38;;;4.69;100.00
20156;BME280;10238;49.556;10.956;2023-04-08T05:16:32;98572.28;;;4.71;100.00
20156;BME280;10238;49.556;10.956;2023-04-08T05:19:20;98574.81;;;4.73;100.00
20156;BME280;10238;49.556;10.956;2023-04-08T05:22:07;98583.44;;;4.75;100.00
20156;BME280;10238;49.556;10.956;2023-04-08T05:24:59;98583.22;;;4.78;100.00
20156;BME280;10238;49.556;10.956;2023-04-08T05:27:46;98575.09;;;4.81;100.00
20156;BME280;10238;49.556;10.956;2023-04-08T05:30:34;98582.66;;;4.85;100.00
20156;BME280;10238;49.556;10.956;2023-04-08T05:33:22;98581.69;;;4.86;100.00
20156;BME280;10238;49.556;10.956;2023-04-08T05:36:12;98591.03;;;4.90;100.00
20156;BME280;10238;49.556;10.956;2023-04-08T05:39:00;98594.31;;;4.94;100.00
20156;BME280;10238;49.556;10.956;2023-04-08T05:41:49;98590.72;;;4.95;100.00
20156;BME280;10238;49.556;10.956;2023-04-08T05:44:37;98596.59;;;4.98;100.00
20156;BME280;10238;49.556;10.956;2023-04-08T05:47:26;98599.94;;;5.00;100.00
20156;BME280;10238;49.556;10.956;2023-04-08T05:50:14;98604.97;;;5.03;100.00
20156;BME280;10238;49.556;10.956;2023-04-08T05:53:02;98608.34;;;5.05;100.00
20156;BME280;10238;49.556;10.956;2023-04-08T05:55:49;98604.63;;;5.08;100.00
20156;BME280;10238;49.556;10.956;2023-04-08T05:58:38;98609.78;;;5.09;100.00
20156;BME280;10238;49.556;10.956;2023-04-08T06:01:26;98607.91;;;5.11;100.00
20156;BME280;10238;49.556;10.956;2023-04-08T06:04:14;98617.25;;;5.15;100.00
20156;BME280;10238;49.556;10.956;2023-04-08T06:07:02;98613.53;;;5.18;100.00
20156;BME280;10238;49.556;10.956;2023-04-08T06:09:51;98624.81;;;5.20;100.00
20156;BME280;10238;49.556;10.956;2023-04-08T06:12:39;98624.47;;;5.24;100.00
20156;BME280;10238;49.556;10.956;2023-04-08T06:15:27;98630.47;;;5.26;100.00
20156;BME280;10238;49.556;10.956;2023-04-08T06:18:15;98632.88;;;5.29;100.00
20156;BME280;10238;49.556;10.956;2023-04-08T06:21:03;98623.78;;;5.33;100.00
20156;BME280;10238;49.556;10.956;2023-04-08T06:23:51;98616.34;;;5.38;100.00
20156;BME280;10238;49.556;10.956;2023-04-08T06:26:38;98628.25;;;5.44;100.00
20156;BME280;10238;49.556;10.956;2023-04-08T06:29:25;98627.91;;;5.48;100.00
20156;BME280;10238;49.556;10.956;2023-04-08T06:32:16;98627.41;;;5.54;100.00
20156;BME280;10238;49.556;10.956;2023-04-08T06:35:05;98630.53;;;5.59;100.00
20156;BME280;10238;49.556;10.956;2023-04-08T06:37:54;98626.72;;;5.63;100.00
20156;BME280;10238;49.556;10.956;2023-04-08T06:40:41;98634.28;;;5.68;100.00
20156;BME280;10238;49.556;10.956;2023-04-08T06:43:29;98640.16;;;5.71;100.00
20156;BME280;10238;49.556;10.956;2023-04-08T06:46:17;98645.09;;;5.76;100.00
20156;BME280;10238;49.556;10.956;2023-04-08T06:49:06;98653.69;;;5.78;100.00
20156;BME280;10238;49.556;10.956;2023-04-08T06:51:54;98654.56;;;5.78;100.00
20156;BME280;10238;49.556;10.956;2023-04-08T06:54:41;98655.28;;;5.80;100.00
20156;BME280;10238;49.556;10.956;2023-04-08T06:57:29;98665.84;;;5.80;100.00
20156;BME280;10238;49.556;10.956;2023-04-08T07:00:17;98662.25;;;5.81;100.00
20156;BME280;10238;49.556;10.956;2023-04-08T07:03:04;98662.03;;;5.84;100.00
20156;BME280;10238;49.556;10.956;2023-04-08T07:05:54;98661.28;;;5.82;100.00
20156;BME280;10238;49.556;10.956;2023-04-08T07:08:41;98668.28;;;5.83;100.00
20156;BME280;10238;49.556;10.956;2023-04-08T07:11:29;98668.13;;;5.85;100.00
20156;BME280;10238;49.556;10.956;2023-04-08T07:14:16;98668.75;;;5.88;100.00
20156;BME280;10238;49.556;10.956;2023-04-08T07:17:05;98672.94;;;5.91;100.00
20156;BME280;10238;49.556;10.956;2023-04-08T07:19:52;98681.59;;;5.93;100.00
20156;BME280;10238;49.556;10.956;2023-04-08T07:22:42;98685.78;;;5.95;100.00
20156;BME280;10238;49.556;10.956;2023-04-08T07:25:30;98689.16;;;5.97;100.00
20156;BME280;10238;49.556;10.956;2023-04-08T07:28:19;98687.25;;;5.99;100.00
20156;BME280;10238;49.556;10.956;2023-04-08T07:31:11;98691.44;;;6.02;100.00
20156;BME280;10238;49.556;10.956;2023-04-08T07:33:59;98692.97;;;6.04;100.00
20156;BME280;10238;49.556;10.956;2023-04-08T07:36:47;98695.38;;;6.07;100.00
20156;BME280;10238;49.556;10.956;2023-04-08T07:39:36;98701.41;;;6.09;100.00
20156;BME280;10238;49.556;10.956;2023-04-08T07:42:24;98700.19;;;6.13;100.00
20156;BME280;10238;49.556;10.956;2023-04-08T07:45:12;98697.56;;;6.13;100.00
20156;BME280;10238;49.556;10.956;2023-04-08T07:48:00;98703.56;;;6.15;100.00
20156;BME280;10238;49.556;10.956;2023-04-08T07:50:48;98698.16;;;6.17;100.00
20156;BME280;10238;49.556;10.956;2023-04-08T07:53:55;98698.06;;;6.18;100.00
20156;BME280;10238;49.556;10.956;2023-04-08T07:56:44;98703.34;;;6.18;100.00
20156;BME280;10238;49.556;10.956;2023-04-08T07:59:32;98712.91;;;6.19;100.00
20156;BME280;10238;49.556;10.956;2023-04-08T08:02:20;98711.94;;;6.20;100.00
20156;BME280;10238;49.556;10.956;2023-04-08T08:05:08;98719.88;;;6.20;100.00
20156;BME280;10238;49.556;10.956;2023-04-08T08:07:57;98720.59;;;6.22;100.00
20156;BME280;10238;49.556;10.956;2023-04-08T08:10:45;98718.78;;;6.23;100.00
20156;BME280;10238;49.556;10.956;2023-04-08T08:13:34;98719.63;;;6.23;100.00
20156;BME280;10238;49.556;10.956;2023-04-08T08:16:22;98723.00;;;6.25;100.00
20156;BME280;10238;49.556;10.956;2023-04-08T08:19:14;98722.03;;;6.26;100.00
20156;BME280;10238;49.556;10.956;2023-04-08T08:22:02;98720.94;;;6.29;100.00
20156;BME280;10238;49.556;10.956;2023-04-08T08:24:55;98734.03;;;6.30;100.00
20156;BME280;10238;49.556;10.956;2023-04-08T08:27:42;98730.56;;;6.30;100.00
20156;BME280;10238;49.556;10.956;2023-04-08T08:30:32;98732.13;;;6.32;100.00
20156;BME280;10238;49.556;10.956;2023-04-08T08:33:19;98731.03;;;6.35;100.00
20156;BME280;10238;49.556;10.956;2023-04-08T08:36:07;98738.13;;;6.34;100.00
20156;BME280;10238;49.556;10.956;2023-04-08T08:38:55;98741.38;;;6.38;100.00
20156;BME280;10238;49.556;10.956;2023-04-08T08:41:42;98745.56;;;6.40;100.00
20156;BME280;10238;49.556;10.956;2023-04-08T08:44:30;98747.03;;;6.44;100.00
20156;BME280;10238;49.556;10.956;2023-04-08T08:47:19;98739.78;;;6.46;100.00
20156;BME280;10238;49.556;10.956;2023-04-08T08:50:07;98742.94;;;6.51;100.00
20156;BME280;10238;49.556;10.956;2023-04-08T08:52:55;98755.78;;;6.56;100.00
20156;BME280;10238;49.556;10.956;2023-04-08T08:55:42;98753.72;;;6.59;100.00
20156;BME280;10238;49.556;10.956;2023-04-08T08:58:50;98752.53;;;6.63;100.00
20156;BME280;10238;49.556;10.956;2023-04-08T09:01:39;98753.97;;;6.68;100.00
20156;BME280;10238;49.556;10.956;2023-04-08T09:04:28;98759.03;;;6.71;100.00
20156;BME280;10238;49.556;10.956;2023-04-08T09:07:23;98753.25;;;6.77;100.00
20156;BME280;10238;49.556;10.956;2023-04-08T09:10:11;98754.44;;;6.84;100.00
20156;BME280;10238;49.556;10.956;2023-04-08T09:12:58;98753.34;;;6.86;100.00
20156;BME280;10238;49.556;10.956;2023-04-08T09:16:03;98759.94;;;6.92;100.00
20156;BME280;10238;49.556;10.956;2023-04-08T09:18:51;98762.22;;;6.96;100.00
20156;BME280;10238;49.556;10.956;2023-04-08T09:21:41;98759.34;;;6.99;100.00
20156;BME280;10238;49.556;10.956;2023-04-08T09:24:32;98763.56;;;7.02;100.00
20156;BME280;10238;49.556;10.956;2023-04-08T09:27:33;98762.34;;;7.06;100.00
20156;BME280;10238;49.556;10.956;2023-04-08T09:30:24;98770.28;;;7.06;100.00
20156;BME280;10238;49.556;10.956;2023-04-08T09:33:13;98771.94;;;7.07;100.00
20156;BME280;10238;49.556;10.956;2023-04-08T09:36:02;98769.19;;;7.08;100.00
20156;BME280;10238;49.556;10.956;2023-04-08T09:38:52;98770.03;;;7.09;100.00
20156;BME280;10238;49.556;10.956;2023-04-08T09:41:41;98778.41;;;7.14;100.00
20156;BME280;10238;49.556;10.956;2023-04-08T09:44:32;98772.88;;;7.17;100.00
20156;BME280;10238;49.556;10.956;2023-04-08T09:47:27;98772.63;;;7.20;100.00
20156;BME280;10238;49.556;10.956;2023-04-08T09:50:18;98773.38;;;7.22;100.00
20156;BME280;10238;49.556;10.956;2023-04-08T09:53:12;98771.56;;;7.22;100.00
20156;BME280;10238;49.556;10.956;2023-04-08T09:56:07;98772.16;;;7.26;100.00
20156;BME280;10238;49.556;10.956;2023-04-08T09:59:02;98773.81;;;7.27;100.00
20156;BME280;10238;49.556;10.956;2023-04-08T10:02:00;98776.94;;;7.32;100.00
20156;BME280;10238;49.556;10.956;2023-04-08T10:04:51;98770.31;;;7.37;100.00
20156;BME280;10238;49.556;10.956;2023-04-08T10:07:41;98775.72;;;7.47;100.00
20156;BME280;10238;49.556;10.956;2023-04-08T10:10:29;98780.00;;;7.59;100.00
20156;BME280;10238;49.556;10.956;2023-04-08T10:13:19;98779.69;;;7.73;100.00
20156;BME280;10238;49.556;10.956;2023-04-08T10:16:22;98772.41;;;7.86;100.00
20156;BME280;10238;49.556;10.956;2023-04-08T10:19:36;98774.59;;;8.01;100.00
20156;BME280;10238;49.556;10.956;2023-04-08T10:22:47;98770.69;;;8.16;100.00
20156;BME280;10238;49.556;10.956;2023-04-08T10:25:37;98768.84;;;8.28;100.00
20156;BME280;10238;49.556;10.956;2023-04-08T10:28:27;98773.34;;;8.37;100.00
20156;BME280;10238;49.556;10.956;2023-04-08T10:31:21;98771.97;;;8.42;100.00
20156;BME280;10238;49.556;10.956;2023-04-08T10:34:15;98762.41;;;8.51;100.00
20156;BME280;10238;49.556;10.956;2023-04-08T10:37:04;98773.06;;;8.60;100.00
20156;BME280;10238;49.556;10.956;2023-04-08T10:39:54;98772.66;;;8.65;100.00
20156;BME280;10238;49.556;10.956;2023-04-08T10:42:41;98762.78;;;8.67;100.00
20156;BME280;10238;49.556;10.956;2023-04-08T10:45:30;98762.94;;;8.75;100.00
20156;BME280;10238;49.556;10.956;2023-04-08T10:48:20;98759.91;;;8.79;100.00
20156;BME280;10238;49.556;10.956;2023-04-08T10:51:09;98754.34;;;8.92;100.00
20156;BME280;10238;49.556;10.956;2023-04-08T10:54:05;98761.69;;;9.09;100.00
20156;BME280;10238;49.556;10.956;2023-04-08T10:56:53;98749.13;;;9.30;100.00
20156;BME280;10238;49.556;10.956;2023-04-08T10:59:41;98748.50;;;9.47;100.00
20156;BME280;10238;49.556;10.956;2023-04-08T11:02:33;98751.41;;;9.73;100.00
20156;BME280;10238;49.556;10.956;2023-04-08T11:05:21;98744.44;;;9.91;100.00
20156;BME280;10238;49.556;10.956;2023-04-08T11:08:09;98736.72;;;10.16;100.00
20156;BME280;10238;49.556;10.956;2023-04-08T11:10:57;98741.31;;;10.33;100.00
20156;BME280;10238;49.556;10.956;2023-04-08T11:13:47;98736.09;;;10.51;100.00
20156;BME280;10238;49.556;10.956;2023-04-08T11:16:39;98741.50;;;10.59;100.00
20156;BME280;10238;49.556;10.956;2023-04-08T11:19:29;98736.56;;;10.73;100.00
20156;BME280;10238;49.556;10.956;2023-04-08T11:22:17;98742.94;;;10.90;100.00
20156;BME280;10238;49.556;10.956;2023-04-08T11:25:07;98738.81;;;11.05;100.00
20156;BME280;10238;49.556;10.956;2023-04-08T11:27:56;98740.09;;;11.19;100.00
20156;BME280;10238;49.556;10.956;2023-04-08T11:30:44;98735.59;;;11.29;100.00
20156;BME280;10238;49.556;10.956;2023-04-08T11:33:33;98736.94;;;11.33;100.00
20156;BME280;10238;49.556;10.956;2023-04-08T11:36:23;98734.91;;;11.44;100.00
20156;BME280;10238;49.556;10.956;2023-04-08T11:39:11;98724.88;;;11.56;100.00
20156;BME280;10238;49.556;10.956;2023-04-08T11:41:58;98734.34;;;11.68;100.00
20156;BME280;10238;49.556;10.956;2023-04-08T11:44:47;98735.34;;;11.67;100.00
20156;BME280;10238;49.556;10.956;2023-04-08T11:47:34;98742.84;;;11.71;100.00
20156;BME280;10238;49.556;10.956;2023-04-08T11:50:24;98730.47;;;11.80;100.00
20156;BME280;10238;49.556;10.956;2023-04-08T11:53:24;98727.41;;;11.75;100.00
20156;BME280;10238;49.556;10.956;2023-04-08T11:56:16;98730.59;;;11.61;100.00
20156;BME280;10238;49.556;10.956;2023-04-08T11:59:04;98728.09;;;11.59;100.00
20156;BME280;10238;49.556;10.956;2023-04-08T12:01:51;98740.84;;;11.56;100.00
20156;BME280;10238;49.556;10.956;2023-04-08T12:04:39;98730.59;;;11.43;100.00
20156;BME280;10238;49.556;10.956;2023-04-08T12:07:27;98737.47;;;11.36;100.00
20156;BME280;10238;49.556;10.956;2023-04-08T12:10:16;98739.91;;;11.30;100.00
20156;BME280;10238;49.556;10.956;2023-04-08T12:13:04;98736.94;;;11.33;100.00
20156;BME280;10238;49.556;10.956;2023-04-08T12:15:51;98737.72;;;11.43;100.00
20156;BME280;10238;49.556;10.956;2023-04-08T12:18:39;98730.13;;;11.48;100.00
20156;BME280;10238;49.556;10.956;2023-04-08T12:21:27;98730.59;;;11.61;100.00
20156;BME280;10238;49.556;10.956;2023-04-08T12:24:14;98726.72;;;11.73;100.00
20156;BME280;10238;49.556;10.956;2023-04-08T12:27:03;98731.97;;;11.82;100.00
20156;BME280;10238;49.556;10.956;2023-04-08T12:29:51;98729.81;;;11.86;100.00
20156;BME280;10238;49.556;10.956;2023-04-08T12:32:38;98730.06;;;11.92;100.00
20156;BME280;10238;49.556;10.956;2023-04-08T12:35:27;98731.28;;;11.98;100.00
20156;BME280;10238;49.556;10.956;2023-04-08T12:38:14;98732.81;;;12.00;100.00
20156;BME280;10238;49.556;10.956;2023-04-08T12:41:02;98735.63;;;11.99;100.00
20156;BME280;10238;49.556;10.956;2023-04-08T12:43:51;98738.28;;;11.99;100.00
20156;BME280;10238;49.556;10.956;2023-04-08T12:46:39;98735.63;;;11.99;100.00
20156;BME280;10238;49.556;10.956;2023-04-08T12:49:27;98741.94;;;11.98;100.00
20156;BME280;10238;49.556;10.956;2023-04-08T12:52:17;98742.53;;;11.92;100.00
20156;BME280;10238;49.556;10.956;2023-04-08T12:55:06;98748.03;;;11.90;100.00
20156;BME280;10238;49.556;10.956;2023-04-08T12:57:53;98735.34;;;11.84;100.00
20156;BME280;10238;49.556;10.956;2023-04-08T13:00:43;98742.78;;;11.81;100.00
20156;BME280;10238;49.556;10.956;2023-04-08T13:03:32;98741.72;;;11.74;100.00
20156;BME280;10238;49.556;10.956;2023-04-08T13:06:21;98743.00;;;11.70;100.00
20156;BME280;10238;49.556;10.956;2023-04-08T13:09:09;98742.50;;;11.66;100.00
20156;BME280;10238;49.556;10.956;2023-04-08T13:11:59;98742.94;;;11.62;100.00
20156;BME280;10238;49.556;10.956;2023-04-08T13:14:47;98751.19;;;11.59;100.00
20156;BME280;10238;49.556;10.956;2023-04-08T13:17:36;98750.94;;;11.62;100.00
20156;BME280;10238;49.556;10.956;2023-04-08T13:20:23;98748.97;;;11.64;100.00
20156;BME280;10238;49.556;10.956;2023-04-08T13:23:12;98747.66;;;11.68;100.00
20156;BME280;10238;49.556;10.956;2023-04-08T13:26:01;98754.34;;;11.72;100.00
20156;BME280;10238;49.556;10.956;2023-04-08T13:28:48;98747.56;;;11.77;100.00
20156;BME280;10238;49.556;10.956;2023-04-08T13:31:43;98748.66;;;11.84;100.00
20156;BME280;10238;49.556;10.956;2023-04-08T13:34:33;98745.91;;;11.94;100.00
20156;BME280;10238;49.556;10.956;2023-04-08T13:37:20;98740.19;;;11.89;100.00
20156;BME280;10238;49.556;10.956;2023-04-08T13:40:09;98742.81;;;12.06;100.00
20156;BME280;10238;49.556;10.956;2023-04-08T13:42:59;98736.66;;;12.23;100.00
20156;BME280;10238;49.556;10.956;2023-04-08T13:45:47;98736.06;;;12.37;100.00
20156;BME280;10238;49.556;10.956;2023-04-08T13:48:35;98731.00;;;12.52;100.00
20156;BME280;10238;49.556;10.956;2023-04-08T13:51:24;98733.03;;;12.58;98.86
20156;BME280;10238;49.556;10.956;2023-04-08T13:54:12;98734.78;;;12.75;99.46
20156;BME280;10238;49.556;10.956;2023-04-08T13:57:00;98736.56;;;12.92;98.75
20156;BME280;10238;49.556;10.956;2023-04-08T13:59:48;98729.81;;;13.06;97.57
20156;BME280;10238;49.556;10.956;2023-04-08T14:02:35;98735.16;;;13.14;96.43
20156;BME280;10238;49.556;10.956;2023-04-08T14:05:23;98731.56;;;12.97;90.76
20156;BME280;10238;49.556;10.956;2023-04-08T14:08:13;98730.03;;;13.20;95.45
20156;BME280;10238;49.556;10.956;2023-04-08T14:11:01;98725.38;;;13.38;94.25
20156;BME280;10238;49.556;10.956;2023-04-08T14:13:48;98728.75;;;13.48;92.85
20156;BME280;10238;49.556;10.956;2023-04-08T14:16:36;98714.75;;;13.62;91.64
20156;BME280;10238;49.556;10.956;2023-04-08T14:19:24;98720.78;;;13.72;91.22
20156;BME280;10238;49.556;10.956;2023-04-08T14:22:12;98717.13;;;13.89;90.83
20156;BME280;10238;49.556;10.956;2023-04-08T14:25:01;98712.63;;;13.98;90.03
20156;BME280;10238;49.556;10.956;2023-04-08T14:27:49;98705.78;;;14.03;85.13
20156;BME280;10238;49.556;10.956;2023-04-08T14:30:44;98708.94;;;14.07;83.67
20156;BME280;10238;49.556;10.956;2023-04-08T14:33:32;98711.44;;;14.24;86.90
20156;BME280;10238;49.556;10.956;2023-04-08T14:36:20;98713.78;;;14.35;85.05
20156;BME280;10238;49.556;10.956;2023-04-08T14:39:09;98715.97;;;14.40;83.51
20156;BME280;10238;49.556;10.956;2023-04-08T14:42:03;98717.13;;;14.37;80.55